sensor_id;sensor_type;location;lat;lon;timestamp;P1;P2;P0
36453;PMS5003;22478;51.740;-1.314;2023-02-03T00:02:01;91;89;
36453;PMS5003;22478;51.740;-1.314;2023-02-03T00:04:28;96;93;
36453;PMS5003;22478;51.740;-1.314;2023-02-03T00:06:55;88;86;
36453;PMS5003;22478;51.740;-1.314;2023-02-03T00:09:23;80;74;
36453;PMS5003;22478;51.740;-1.314;2023-02-03T00:11:51;74;74;
36453;PMS5003;22478;51.740;-1.314;2023-02-03T00:14:19;69;69;
36453;PMS5003;22478;51.740;-1.314;2023-02-03T00:16:46;60;58;
36453;PMS5003;22478;51.740;-1.314;2023-02-03T00:19:14;53;50;
36453;PMS5003;22478;51.740;-1.314;2023-02-03T00:21:41;56;55;
36453;PMS5003;22478;51.740;-1.314;2023-02-03T00:24:09;79;79;
36453;PMS5003;22478;51.740;-1.314;2023-02-03T00:26:39;79;74;
36453;PMS5003;22478;51.740;-1.314;2023-02-03T00:29:07;64;61;
36453;PMS5003;22478;51.740;-1.314;2023-02-03T00:31:35;76;72;
36453;PMS5003;22478;51.740;-1.314;2023-02-03T00:34:02;69;69;
36453;PMS5003;22478;51.740;-1.314;2023-02-03T00:36:30;81;81;
36453;PMS5003;22478;51.740;-1.314;2023-02-03T00:38:59;83;80;
36453;PMS5003;22478;51.740;-1.314;2023-02-03T00:41:27;72;72;
36453;PMS5003;22478;51.740;-1.314;2023-02-03T00:43:56;73;73;
36453;PMS5003;22478;51.740;-1.314;2023-02-03T00:46:24;82;81;
36453;PMS5003;22478;51.740;-1.314;2023-02-03T00:48:51;62;60;
36453;PMS5003;22478;51.740;-1.314;2023-02-03T00:51:18;77;74;
36453;PMS5003;22478;51.740;-1.314;2023-02-03T00:53:46;92;91;
36453;PMS5003;22478;51.740;-1.314;2023-02-03T00:56:14;80;78;
36453;PMS5003;22478;51.740;-1.314;2023-02-03T00:58:41;55;55;
36453;PMS5003;22478;51.740;-1.314;2023-02-03T01:01:09;67;67;
36453;PMS5003;22478;51.740;-1.314;2023-02-03T01:03:37;72;69;
36453;PMS5003;22478;51.740;-1.314;2023-02-03T01:06:08;73;73;
36453;PMS5003;22478;51.740;-1.314;2023-02-03T01:08:36;73;70;
36453;PMS5003;22478;51.740;-1.314;2023-02-03T01:11:05;65;64;
36453;PMS5003;22478;51.740;-1.314;2023-02-03T01:13:33;66;66;
36453;PMS5003;22478;51.740;-1.314;2023-02-03T01:16:01;73;68;
36453;PMS5003;22478;51.740;-1.314;2023-02-03T01:18:28;78;78;
36453;PMS5003;22478;51.740;-1.314;2023-02-03T01:20:56;77;74;
36453;PMS5003;22478;51.740;-1.314;2023-02-03T01:23:22;54;54;
36453;PMS5003;22478;51.740;-1.314;2023-02-03T01:25:50;58;58;
36453;PMS5003;22478;51.740;-1.314;2023-02-03T01:28:17;75;72;
36453;PMS5003;22478;51.740;-1.314;2023-02-03T01:30:45;58;55;
36453;PMS5003;22478;51.740;-1.314;2023-02-03T01:33:12;76;75;
36453;PMS5003;22478;51.740;-1.314;2023-02-03T01:35:40;83;81;
36453;PMS5003;22478;51.740;-1.314;2023-02-03T01:38:07;67;63;
36453;PMS5003;22478;51.740;-1.314;2023-02-03T01:40:39;60;60;
36453;PMS5003;22478;51.740;-1.314;2023-02-03T01:43:08;74;72;
36453;PMS5003;22478;51.740;-1.314;2023-02-03T01:45:36;70;70;
36453;PMS5003;22478;51.740;-1.314;2023-02-03T01:48:06;58;54;
36453;PMS5003;22478;51.740;-1.314;2023-02-03T01:50:35;75;75;
36453;PMS5003;22478;51.740;-1.314;2023-02-03T01:53:04;68;67;
36453;PMS5003;22478;51.740;-1.314;2023-02-03T01:55:36;56;56;
36453;PMS5003;22478;51.740;-1.314;2023-02-03T01:58:07;56;52;
36453;PMS5003;22478;51.740;-1.314;2023-02-03T02:00:38;53;51;
36453;PMS5003;22478;51.740;-1.314;2023-02-03T02:03:06;76;72;
36453;PMS5003;22478;51.740;-1.314;2023-02-03T02:05:35;62;60;
36453;PMS5003;22478;51.740;-1.314;2023-02-03T02:08:06;68;65;
36453;PMS5003;22478;51.740;-1.314;2023-02-03T02:10:35;54;54;
36453;PMS5003;22478;51.740;-1.314;2023-02-03T02:13:02;75;73;
36453;PMS5003;22478;51.740;-1.314;2023-02-03T02:15:34;65;65;
36453;PMS5003;22478;51.740;-1.314;2023-02-03T02:18:14;58;56;
36453;PMS5003;22478;51.740;-1.314;2023-02-03T02:20:55;54;52;
36453;PMS5003;22478;51.740;-1.314;2023-02-03T02:24:09;72;68;
36453;PMS5003;22478;51.740;-1.314;2023-02-03T02:26:56;59;58;
36453;PMS5003;22478;51.740;-1.314;2023-02-03T02:29:37;73;73;
36453;PMS5003;22478;51.740;-1.314;2023-02-03T02:32:27;71;71;
36453;PMS5003;22478;51.740;-1.314;2023-02-03T02:35:02;69;69;
36453;PMS5003;22478;51.740;-1.314;2023-02-03T02:37:41;68;65;
36453;PMS5003;22478;51.740;-1.314;2023-02-03T02:40:18;67;64;
36453;PMS5003;22478;51.740;-1.314;2023-02-03T02:40:21;64;61;
36453;PMS5003;22478;51.740;-1.314;2023-02-03T02:42:56;57;54;
36453;PMS5003;22478;51.740;-1.314;2023-02-03T02:45:31;63;63;
36453;PMS5003;22478;51.740;-1.314;2023-02-03T02:48:07;70;68;
36453;PMS5003;22478;51.740;-1.314;2023-02-03T02:50:42;68;68;
36453;PMS5003;22478;51.740;-1.314;2023-02-03T02:53:11;72;69;
36453;PMS5003;22478;51.740;-1.314;2023-02-03T02:55:40;67;63;
36453;PMS5003;22478;51.740;-1.314;2023-02-03T02:58:10;68;67;
36453;PMS5003;22478;51.740;-1.314;2023-02-03T03:00:40;55;55;
36453;PMS5003;22478;51.740;-1.314;2023-02-03T03:03:16;66;66;
36453;PMS5003;22478;51.740;-1.314;2023-02-03T03:05:47;61;60;
36453;PMS5003;22478;51.740;-1.314;2023-02-03T03:08:17;56;54;
36453;PMS5003;22478;51.740;-1.314;2023-02-03T03:10:48;53;53;
36453;PMS5003;22478;51.740;-1.314;2023-02-03T03:13:18;79;76;
36453;PMS5003;22478;51.740;-1.314;2023-02-03T03:15:49;55;54;
36453;PMS5003;22478;51.740;-1.314;2023-02-03T03:18:20;59;59;
36453;PMS5003;22478;51.740;-1.314;2023-02-03T03:20:52;59;59;
36453;PMS5003;22478;51.740;-1.314;2023-02-03T03:23:23;75;75;
36453;PMS5003;22478;51.740;-1.314;2023-02-03T03:25:53;87;87;
36453;PMS5003;22478;51.740;-1.314;2023-02-03T03:28:27;71;71;
36453;PMS5003;22478;51.740;-1.314;2023-02-03T03:31:01;53;53;
36453;PMS5003;22478;51.740;-1.314;2023-02-03T03:33:29;78;78;
36453;PMS5003;22478;51.740;-1.314;2023-02-03T03:35:58;64;61;
36453;PMS5003;22478;51.740;-1.314;2023-02-03T03:38:31;65;65;
36453;PMS5003;22478;51.740;-1.314;2023-02-03T03:41:05;84;84;
36453;PMS5003;22478;51.740;-1.314;2023-02-03T03:43:38;64;62;
36453;PMS5003;22478;51.740;-1.314;2023-02-03T03:46:11;72;69;
36453;PMS5003;22478;51.740;-1.314;2023-02-03T03:48:41;62;61;
36453;PMS5003;22478;51.740;-1.314;2023-02-03T03:51:16;74;74;
36453;PMS5003;22478;51.740;-1.314;2023-02-03T03:53:48;68;65;
36453;PMS5003;22478;51.740;-1.314;2023-02-03T03:56:20;66;64;
36453;PMS5003;22478;51.740;-1.314;2023-02-03T03:58:52;64;64;
36453;PMS5003;22478;51.740;-1.314;2023-02-03T04:01:20;56;56;
36453;PMS5003;22478;51.740;-1.314;2023-02-03T04:03:50;52;52;
36453;PMS5003;22478;51.740;-1.314;2023-02-03T04:06:22;50;49;
36453;PMS5003;22478;51.740;-1.314;2023-02-03T04:08:49;59;55;
36453;PMS5003;22478;51.740;-1.314;2023-02-03T04:11:16;49;47;
36453;PMS5003;22478;51.740;-1.314;2023-02-03T04:13:44;52;52;
36453;PMS5003;22478;51.740;-1.314;2023-02-03T04:16:11;51;51;
36453;PMS5003;22478;51.740;-1.314;2023-02-03T04:18:38;56;53;
36453;PMS5003;22478;51.740;-1.314;2023-02-03T04:21:06;51;50;
36453;PMS5003;22478;51.740;-1.314;2023-02-03T04:23:33;58;56;
36453;PMS5003;22478;51.740;-1.314;2023-02-03T04:26:00;67;66;
36453;PMS5003;22478;51.740;-1.314;2023-02-03T04:28:28;57;57;
36453;PMS5003;22478;51.740;-1.314;2023-02-03T04:30:58;64;63;
36453;PMS5003;22478;51.740;-1.314;2023-02-03T04:33:26;55;54;
36453;PMS5003;22478;51.740;-1.314;2023-02-03T04:35:54;54;54;
36453;PMS5003;22478;51.740;-1.314;2023-02-03T04:38:21;66;66;
36453;PMS5003;22478;51.740;-1.314;2023-02-03T04:40:49;68;68;
36453;PMS5003;22478;51.740;-1.314;2023-02-03T04:43:16;52;52;
36453;PMS5003;22478;51.740;-1.314;2023-02-03T04:45:43;55;55;
36453;PMS5003;22478;51.740;-1.314;2023-02-03T04:48:10;54;52;
36453;PMS5003;22478;51.740;-1.314;2023-02-03T04:50:38;72;72;
36453;PMS5003;22478;51.740;-1.314;2023-02-03T04:53:05;52;52;
36453;PMS5003;22478;51.740;-1.314;2023-02-03T04:55:32;48;47;
36453;PMS5003;22478;51.740;-1.314;2023-02-03T04:57:59;59;56;
36453;PMS5003;22478;51.740;-1.314;2023-02-03T05:00:27;60;57;
36453;PMS5003;22478;51.740;-1.314;2023-02-03T05:02:55;62;57;
36453;PMS5003;22478;51.740;-1.314;2023-02-03T05:05:22;52;52;
36453;PMS5003;22478;51.740;-1.314;2023-02-03T05:07:49;45;44;
36453;PMS5003;22478;51.740;-1.314;2023-02-03T05:10:16;45;45;
36453;PMS5003;22478;51.740;-1.314;2023-02-03T05:12:44;52;51;
36453;PMS5003;22478;51.740;-1.314;2023-02-03T05:15:11;40;40;
36453;PMS5003;22478;51.740;-1.314;2023-02-03T05:17:38;37;35;
36453;PMS5003;22478;51.740;-1.314;2023-02-03T05:20:05;44;44;
36453;PMS5003;22478;51.740;-1.314;2023-02-03T05:22:33;43;43;
36453;PMS5003;22478;51.740;-1.314;2023-02-03T05:25:00;52;50;
36453;PMS5003;22478;51.740;-1.314;2023-02-03T05:27:27;46;46;
36453;PMS5003;22478;51.740;-1.314;2023-02-03T05:29:54;50;48;
36453;PMS5003;22478;51.740;-1.314;2023-02-03T05:32:22;53;51;
36453;PMS5003;22478;51.740;-1.314;2023-02-03T05:34:49;59;55;
36453;PMS5003;22478;51.740;-1.314;2023-02-03T05:37:16;36;36;
36453;PMS5003;22478;51.740;-1.314;2023-02-03T05:39:43;48;48;
36453;PMS5003;22478;51.740;-1.314;2023-02-03T05:42:11;54;52;
36453;PMS5003;22478;51.740;-1.314;2023-02-03T05:44:38;50;49;
36453;PMS5003;22478;51.740;-1.314;2023-02-03T05:47:05;54;51;
36453;PMS5003;22478;51.740;-1.314;2023-02-03T05:49:32;56;56;
36453;PMS5003;22478;51.740;-1.314;2023-02-03T05:52:00;52;50;
36453;PMS5003;22478;51.740;-1.314;2023-02-03T05:54:27;49;49;
36453;PMS5003;22478;51.740;-1.314;2023-02-03T05:56:55;59;59;
36453;PMS5003;22478;51.740;-1.314;2023-02-03T05:59:22;68;68;
36453;PMS5003;22478;51.740;-1.314;2023-02-03T06:01:49;60;59;
36453;PMS5003;22478;51.740;-1.314;2023-02-03T06:04:17;69;66;
36453;PMS5003;22478;51.740;-1.314;2023-02-03T06:06:44;62;58;
36453;PMS5003;22478;51.740;-1.314;2023-02-03T06:09:12;63;63;
36453;PMS5003;22478;51.740;-1.314;2023-02-03T06:11:39;66;64;
36453;PMS5003;22478;51.740;-1.314;2023-02-03T06:14:06;70;67;
36453;PMS5003;22478;51.740;-1.314;2023-02-03T06:16:33;63;63;
36453;PMS5003;22478;51.740;-1.314;2023-02-03T06:19:00;65;63;
36453;PMS5003;22478;51.740;-1.314;2023-02-03T06:21:28;66;65;
36453;PMS5003;22478;51.740;-1.314;2023-02-03T06:23:55;75;75;
36453;PMS5003;22478;51.740;-1.314;2023-02-03T06:26:23;65;64;
36453;PMS5003;22478;51.740;-1.314;2023-02-03T06:28:50;69;69;
36453;PMS5003;22478;51.740;-1.314;2023-02-03T06:31:18;66;65;
36453;PMS5003;22478;51.740;-1.314;2023-02-03T06:33:45;60;59;
36453;PMS5003;22478;51.740;-1.314;2023-02-03T06:36:12;70;67;
36453;PMS5003;22478;51.740;-1.314;2023-02-03T06:38:39;59;59;
36453;PMS5003;22478;51.740;-1.314;2023-02-03T06:41:06;52;52;
36453;PMS5003;22478;51.740;-1.314;2023-02-03T06:43:33;61;61;
36453;PMS5003;22478;51.740;-1.314;2023-02-03T06:46:00;68;68;
36453;PMS5003;22478;51.740;-1.314;2023-02-03T06:48:28;70;70;
36453;PMS5003;22478;51.740;-1.314;2023-02-03T06:50:55;60;60;
36453;PMS5003;22478;51.740;-1.314;2023-02-03T06:53:22;59;58;
36453;PMS5003;22478;51.740;-1.314;2023-02-03T06:55:49;76;72;
36453;PMS5003;22478;51.740;-1.314;2023-02-03T06:58:17;61;60;
36453;PMS5003;22478;51.740;-1.314;2023-02-03T07:00:44;67;67;
36453;PMS5003;22478;51.740;-1.314;2023-02-03T07:03:11;71;70;
36453;PMS5003;22478;51.740;-1.314;2023-02-03T07:05:38;59;59;
36453;PMS5003;22478;51.740;-1.314;2023-02-03T07:08:06;68;64;
36453;PMS5003;22478;51.740;-1.314;2023-02-03T07:10:33;64;64;
36453;PMS5003;22478;51.740;-1.314;2023-02-03T07:13:06;67;67;
36453;PMS5003;22478;51.740;-1.314;2023-02-03T07:15:33;64;63;
36453;PMS5003;22478;51.740;-1.314;2023-02-03T07:18:00;70;70;
36453;PMS5003;22478;51.740;-1.314;2023-02-03T07:20:27;69;69;
36453;PMS5003;22478;51.740;-1.314;2023-02-03T07:22:55;84;82;
36453;PMS5003;22478;51.740;-1.314;2023-02-03T07:25:23;79;77;
36453;PMS5003;22478;51.740;-1.314;2023-02-03T07:27:56;89;85;
36453;PMS5003;22478;51.740;-1.314;2023-02-03T07:30:23;75;73;
36453;PMS5003;22478;51.740;-1.314;2023-02-03T07:32:50;77;77;
36453;PMS5003;22478;51.740;-1.314;2023-02-03T07:35:19;81;80;
36453;PMS5003;22478;51.740;-1.314;2023-02-03T07:37:46;96;96;
36453;PMS5003;22478;51.740;-1.314;2023-02-03T07:40:15;78;74;
36453;PMS5003;22478;51.740;-1.314;2023-02-03T07:42:42;73;72;
36453;PMS5003;22478;51.740;-1.314;2023-02-03T07:45:10;81;80;
36453;PMS5003;22478;51.740;-1.314;2023-02-03T07:47:39;85;85;
36453;PMS5003;22478;51.740;-1.314;2023-02-03T07:50:08;82;79;
36453;PMS5003;22478;51.740;-1.314;2023-02-03T07:52:36;103;102;
36453;PMS5003;22478;51.740;-1.314;2023-02-03T07:55:04;89;88;
36453;PMS5003;22478;51.740;-1.314;2023-02-03T07:57:31;84;82;
36453;PMS5003;22478;51.740;-1.314;2023-02-03T07:59:59;90;87;
36453;PMS5003;22478;51.740;-1.314;2023-02-03T08:02:27;83;82;
36453;PMS5003;22478;51.740;-1.314;2023-02-03T08:04:54;75;75;
36453;PMS5003;22478;51.740;-1.314;2023-02-03T08:07:21;79;79;
36453;PMS5003;22478;51.740;-1.314;2023-02-03T08:09:48;74;71;
36453;PMS5003;22478;51.740;-1.314;2023-02-03T08:12:16;85;85;
36453;PMS5003;22478;51.740;-1.314;2023-02-03T08:14:43;80;78;
36453;PMS5003;22478;51.740;-1.314;2023-02-03T08:17:11;82;81;
36453;PMS5003;22478;51.740;-1.314;2023-02-03T08:19:38;85;85;
36453;PMS5003;22478;51.740;-1.314;2023-02-03T08:22:05;90;89;
36453;PMS5003;22478;51.740;-1.314;2023-02-03T08:24:32;87;82;
36453;PMS5003;22478;51.740;-1.314;2023-02-03T08:26:59;92;92;
36453;PMS5003;22478;51.740;-1.314;2023-02-03T08:29:26;87;83;
36453;PMS5003;22478;51.740;-1.314;2023-02-03T08:31:54;81;78;
36453;PMS5003;22478;51.740;-1.314;2023-02-03T08:34:21;81;80;
36453;PMS5003;22478;51.740;-1.314;2023-02-03T08:36:48;79;78;
36453;PMS5003;22478;51.740;-1.314;2023-02-03T08:39:16;83;82;
36453;PMS5003;22478;51.740;-1.314;2023-02-03T08:41:43;87;85;
36453;PMS5003;22478;51.740;-1.314;2023-02-03T08:44:11;84;81;
36453;PMS5003;22478;51.740;-1.314;2023-02-03T08:46:39;87;85;
36453;PMS5003;22478;51.740;-1.314;2023-02-03T08:49:07;77;77;
36453;PMS5003;22478;51.740;-1.314;2023-02-03T08:51:34;82;79;
36453;PMS5003;22478;51.740;-1.314;2023-02-03T08:54:01;92;90;
36453;PMS5003;22478;51.740;-1.314;2023-02-03T08:56:29;96;95;
36453;PMS5003;22478;51.740;-1.314;2023-02-03T08:58:56;71;71;
36453;PMS5003;22478;51.740;-1.314;2023-02-03T09:01:23;64;61;
36453;PMS5003;22478;51.740;-1.314;2023-02-03T09:03:50;78;77;
36453;PMS5003;22478;51.740;-1.314;2023-02-03T09:06:17;80;80;
36453;PMS5003;22478;51.740;-1.314;2023-02-03T09:08:45;69;69;
36453;PMS5003;22478;51.740;-1.314;2023-02-03T09:11:13;85;80;
36453;PMS5003;22478;51.740;-1.314;2023-02-03T09:13:42;61;60;
36453;PMS5003;22478;51.740;-1.314;2023-02-03T09:16:09;70;68;
36453;PMS5003;22478;51.740;-1.314;2023-02-03T09:18:37;78;78;
36453;PMS5003;22478;51.740;-1.314;2023-02-03T09:21:06;76;72;
36453;PMS5003;22478;51.740;-1.314;2023-02-03T09:23:34;83;83;
36453;PMS5003;22478;51.740;-1.314;2023-02-03T09:26:02;64;64;
36453;PMS5003;22478;51.740;-1.314;2023-02-03T09:28:30;67;67;
36453;PMS5003;22478;51.740;-1.314;2023-02-03T09:30:58;81;81;
36453;PMS5003;22478;51.740;-1.314;2023-02-03T09:33:26;82;82;
36453;PMS5003;22478;51.740;-1.314;2023-02-03T09:35:54;69;68;
36453;PMS5003;22478;51.740;-1.314;2023-02-03T09:38:23;76;76;
36453;PMS5003;22478;51.740;-1.314;2023-02-03T09:40:52;77;77;
36453;PMS5003;22478;51.740;-1.314;2023-02-03T09:43:27;73;70;
36453;PMS5003;22478;51.740;-1.314;2023-02-03T09:46:01;68;67;
36453;PMS5003;22478;51.740;-1.314;2023-02-03T09:48:33;73;73;
36453;PMS5003;22478;51.740;-1.314;2023-02-03T09:51:03;62;61;
36453;PMS5003;22478;51.740;-1.314;2023-02-03T09:53:44;61;61;
36453;PMS5003;22478;51.740;-1.314;2023-02-03T09:56:17;52;51;
36453;PMS5003;22478;51.740;-1.314;2023-02-03T09:58:52;52;52;
36453;PMS5003;22478;51.740;-1.314;2023-02-03T10:01:20;54;54;
36453;PMS5003;22478;51.740;-1.314;2023-02-03T10:03:52;57;55;
36453;PMS5003;22478;51.740;-1.314;2023-02-03T10:06:29;46;46;
36453;PMS5003;22478;51.740;-1.314;2023-02-03T10:09:07;45;45;
36453;PMS5003;22478;51.740;-1.314;2023-02-03T10:11:49;38;36;
36453;PMS5003;22478;51.740;-1.314;2023-02-03T10:14:32;37;36;
36453;PMS5003;22478;51.740;-1.314;2023-02-03T10:17:16;37;34;
36453;PMS5003;22478;51.740;-1.314;2023-02-03T10:19:50;84;84;
36453;PMS5003;22478;51.740;-1.314;2023-02-03T10:22:23;68;68;
36453;PMS5003;22478;51.740;-1.314;2023-02-03T10:24:53;66;64;
36453;PMS5003;22478;51.740;-1.314;2023-02-03T10:27:26;55;55;
36453;PMS5003;22478;51.740;-1.314;2023-02-03T10:29:55;65;65;
36453;PMS5003;22478;51.740;-1.314;2023-02-03T10:32:27;58;55;
36453;PMS5003;22478;51.740;-1.314;2023-02-03T10:34:55;58;56;
36453;PMS5003;22478;51.740;-1.314;2023-02-03T10:37:24;57;56;
36453;PMS5003;22478;51.740;-1.314;2023-02-03T10:39:54;57;57;
36453;PMS5003;22478;51.740;-1.314;2023-02-03T10:42:25;68;68;
36453;PMS5003;22478;51.740;-1.314;2023-02-03T10:44:55;42;36;
36453;PMS5003;22478;51.740;-1.314;2023-02-03T10:47:24;61;61;
36453;PMS5003;22478;51.740;-1.314;2023-02-03T10:49:55;52;49;
36453;PMS5003;22478;51.740;-1.314;2023-02-03T10:52:28;57;57;
36453;PMS5003;22478;51.740;-1.314;2023-02-03T10:54:57;58;52;
36453;PMS5003;22478;51.740;-1.314;2023-02-03T10:57:27;48;48;
36453;PMS5003;22478;51.740;-1.314;2023-02-03T11:00:02;55;55;
36453;PMS5003;22478;51.740;-1.314;2023-02-03T11:02:32;40;38;
36453;PMS5003;22478;51.740;-1.314;2023-02-03T11:05:08;39;39;
36453;PMS5003;22478;51.740;-1.314;2023-02-03T11:07:38;47;44;
36453;PMS5003;22478;51.740;-1.314;2023-02-03T11:10:23;38;33;
36453;PMS5003;22478;51.740;-1.314;2023-02-03T11:12:53;38;38;
36453;PMS5003;22478;51.740;-1.314;2023-02-03T11:15:41;39;37;
36453;PMS5003;22478;51.740;-1.314;2023-02-03T11:19:15;26;26;
36453;PMS5003;22478;51.740;-1.314;2023-02-03T11:21:46;30;28;
36453;PMS5003;22478;51.740;-1.314;2023-02-03T11:24:17;32;31;
36453;PMS5003;22478;51.740;-1.314;2023-02-03T11:26:48;29;29;
36453;PMS5003;22478;51.740;-1.314;2023-02-03T11:29:21;38;36;
36453;PMS5003;22478;51.740;-1.314;2023-02-03T11:31:51;25;25;
36453;PMS5003;22478;51.740;-1.314;2023-02-03T11:34:21;30;30;
36453;PMS5003;22478;51.740;-1.314;2023-02-03T11:36:52;36;36;
36453;PMS5003;22478;51.740;-1.314;2023-02-03T11:39:26;31;29;
36453;PMS5003;22478;51.740;-1.314;2023-02-03T11:41:54;32;32;
36453;PMS5003;22478;51.740;-1.314;2023-02-03T11:44:23;27;26;
36453;PMS5003;22478;51.740;-1.314;2023-02-03T11:46:53;24;24;
36453;PMS5003;22478;51.740;-1.314;2023-02-03T11:49:32;27;27;
36453;PMS5003;22478;51.740;-1.314;2023-02-03T11:52:56;31;30;
36453;PMS5003;22478;51.740;-1.314;2023-02-03T11:55:41;23;22;
36453;PMS5003;22478;51.740;-1.314;2023-02-03T11:58:19;31;31;
36453;PMS5003;22478;51.740;-1.314;2023-02-03T12:01:04;36;34;
36453;PMS5003;22478;51.740;-1.314;2023-02-03T12:03:43;31;29;
36453;PMS5003;22478;51.740;-1.314;2023-02-03T12:07:33;28;28;
36453;PMS5003;22478;51.740;-1.314;2023-02-03T12:10:15;17;16;
36453;PMS5003;22478;51.740;-1.314;2023-02-03T12:12:55;28;28;
36453;PMS5003;22478;51.740;-1.314;2023-02-03T12:15:32;28;28;
36453;PMS5003;22478;51.740;-1.314;2023-02-03T12:18:22;26;24;
36453;PMS5003;22478;51.740;-1.314;2023-02-03T12:21:02;35;33;
36453;PMS5003;22478;51.740;-1.314;2023-02-03T12:23:40;28;28;
36453;PMS5003;22478;51.740;-1.314;2023-02-03T12:26:20;27;26;
36453;PMS5003;22478;51.740;-1.314;2023-02-03T12:28:52;20;19;
36453;PMS5003;22478;51.740;-1.314;2023-02-03T12:31:29;29;29;
36453;PMS5003;22478;51.740;-1.314;2023-02-03T12:34:11;23;22;
36453;PMS5003;22478;51.740;-1.314;2023-02-03T12:36:44;25;25;
36453;PMS5003;22478;51.740;-1.314;2023-02-03T12:39:18;18;18;
36453;PMS5003;22478;51.740;-1.314;2023-02-03T12:41:54;11;10;
36453;PMS5003;22478;51.740;-1.314;2023-02-03T12:44:28;9;8;
36453;PMS5003;22478;51.740;-1.314;2023-02-03T12:47:01;13;12;
36453;PMS5003;22478;51.740;-1.314;2023-02-03T12:49:34;16;13;
36453;PMS5003;22478;51.740;-1.314;2023-02-03T12:52:11;14;12;
36453;PMS5003;22478;51.740;-1.314;2023-02-03T12:54:45;10;8;
36453;PMS5003;22478;51.740;-1.314;2023-02-03T12:57:20;8;8;
36453;PMS5003;22478;51.740;-1.314;2023-02-03T12:59:56;6;6;
36453;PMS5003;22478;51.740;-1.314;2023-02-03T13:02:31;9;7;
36453;PMS5003;22478;51.740;-1.314;2023-02-03T13:05:04;11;8;
36453;PMS5003;22478;51.740;-1.314;2023-02-03T13:07:42;13;10;
36453;PMS5003;22478;51.740;-1.314;2023-02-03T13:10:14;13;13;
36453;PMS5003;22478;51.740;-1.314;2023-02-03T13:12:48;13;13;
36453;PMS5003;22478;51.740;-1.314;2023-02-03T13:15:23;15;13;
36453;PMS5003;22478;51.740;-1.314;2023-02-03T13:17:56;11;11;
36453;PMS5003;22478;51.740;-1.314;2023-02-03T13:20:28;17;17;
36453;PMS5003;22478;51.740;-1.314;2023-02-03T13:22:57;12;11;
36453;PMS5003;22478;51.740;-1.314;2023-02-03T13:25:24;5;5;
36453;PMS5003;22478;51.740;-1.314;2023-02-03T13:28:01;7;7;
36453;PMS5003;22478;51.740;-1.314;2023-02-03T13:30:42;8;8;
36453;PMS5003;22478;51.740;-1.314;2023-02-03T13:33:24;9;8;
36453;PMS5003;22478;51.740;-1.314;2023-02-03T13:36:44;9;9;
36453;PMS5003;22478;51.740;-1.314;2023-02-03T13:39:36;18;16;
36453;PMS5003;22478;51.740;-1.314;2023-02-03T13:42:17;15;14;
36453;PMS5003;22478;51.740;-1.314;2023-02-03T13:44:49;15;15;
36453;PMS5003;22478;51.740;-1.314;2023-02-03T13:47:21;17;16;
36453;PMS5003;22478;51.740;-1.314;2023-02-03T13:49:53;20;20;
36453;PMS5003;22478;51.740;-1.314;2023-02-03T13:52:26;24;24;
36453;PMS5003;22478;51.740;-1.314;2023-02-03T13:54:59;21;21;
36453;PMS5003;22478;51.740;-1.314;2023-02-03T13:57:33;25;24;
36453;PMS5003;22478;51.740;-1.314;2023-02-03T14:00:03;19;17;
36453;PMS5003;22478;51.740;-1.314;2023-02-03T14:02:39;23;21;
36453;PMS5003;22478;51.740;-1.314;2023-02-03T14:05:43;18;17;
36453;PMS5003;22478;51.740;-1.314;2023-02-03T14:10:22;22;22;
36453;PMS5003;22478;51.740;-1.314;2023-02-03T14:12:57;16;16;
36453;PMS5003;22478;51.740;-1.314;2023-02-03T14:15:29;17;17;
36453;PMS5003;22478;51.740;-1.314;2023-02-03T14:18:00;26;25;
36453;PMS5003;22478;51.740;-1.314;2023-02-03T14:21:14;18;18;
36453;PMS5003;22478;51.740;-1.314;2023-02-03T14:23:48;28;25;
36453;PMS5003;22478;51.740;-1.314;2023-02-03T14:26:33;17;17;
36453;PMS5003;22478;51.740;-1.314;2023-02-03T14:29:04;23;23;
36453;PMS5003;22478;51.740;-1.314;2023-02-03T14:31:50;24;24;
36453;PMS5003;22478;51.740;-1.314;2023-02-03T14:34:32;22;22;
36453;PMS5003;22478;51.740;-1.314;2023-02-03T14:37:09;23;23;
36453;PMS5003;22478;51.740;-1.314;2023-02-03T14:39:47;17;16;
36453;PMS5003;22478;51.740;-1.314;2023-02-03T14:43:19;31;30;
36453;PMS5003;22478;51.740;-1.314;2023-02-03T14:46:04;23;23;
36453;PMS5003;22478;51.740;-1.314;2023-02-03T14:48:48;24;24;
36453;PMS5003;22478;51.740;-1.314;2023-02-03T14:51:29;20;20;
36453;PMS5003;22478;51.740;-1.314;2023-02-03T14:54:12;21;21;
36453;PMS5003;22478;51.740;-1.314;2023-02-03T14:56:48;14;13;
36453;PMS5003;22478;51.740;-1.314;2023-02-03T14:59:35;13;12;
36453;PMS5003;22478;51.740;-1.314;2023-02-03T15:02:07;17;17;
36453;PMS5003;22478;51.740;-1.314;2023-02-03T15:04:36;20;18;
36453;PMS5003;22478;51.740;-1.314;2023-02-03T15:07:03;28;25;
36453;PMS5003;22478;51.740;-1.314;2023-02-03T15:09:32;31;31;
36453;PMS5003;22478;51.740;-1.314;2023-02-03T15:12:13;40;39;
36453;PMS5003;22478;51.740;-1.314;2023-02-03T15:14:43;27;23;
36453;PMS5003;22478;51.740;-1.314;2023-02-03T15:17:10;38;36;
36453;PMS5003;22478;51.740;-1.314;2023-02-03T15:19:40;23;23;
36453;PMS5003;22478;51.740;-1.314;2023-02-03T15:22:25;14;14;
36453;PMS5003;22478;51.740;-1.314;2023-02-03T15:24:54;20;20;
36453;PMS5003;22478;51.740;-1.314;2023-02-03T15:27:24;34;29;
36453;PMS5003;22478;51.740;-1.314;2023-02-03T15:29:53;18;17;
36453;PMS5003;22478;51.740;-1.314;2023-02-03T15:32:23;24;24;
36453;PMS5003;22478;51.740;-1.314;2023-02-03T15:34:54;22;22;
36453;PMS5003;22478;51.740;-1.314;2023-02-03T15:37:26;27;24;
36453;PMS5003;22478;51.740;-1.314;2023-02-03T15:39:59;28;26;
36453;PMS5003;22478;51.740;-1.314;2023-02-03T15:42:30;22;22;
36453;PMS5003;22478;51.740;-1.314;2023-02-03T15:45:03;25;24;
36453;PMS5003;22478;51.740;-1.314;2023-02-03T15:47:36;18;18;
36453;PMS5003;22478;51.740;-1.314;2023-02-03T15:50:13;20;20;
36453;PMS5003;22478;51.740;-1.314;2023-02-03T15:52:50;20;20;
36453;PMS5003;22478;51.740;-1.314;2023-02-03T15:55:26;26;26;
36453;PMS5003;22478;51.740;-1.314;2023-02-03T15:57:58;22;22;
36453;PMS5003;22478;51.740;-1.314;2023-02-03T16:00:28;21;21;
36453;PMS5003;22478;51.740;-1.314;2023-02-03T16:02:59;18;18;
36453;PMS5003;22478;51.740;-1.314;2023-02-03T16:05:30;23;21;
36453;PMS5003;22478;51.740;-1.314;2023-02-03T16:09:06;24;24;
36453;PMS5003;22478;51.740;-1.314;2023-02-03T16:12:00;16;14;
36453;PMS5003;22478;51.740;-1.314;2023-02-03T16:14:30;19;19;
36453;PMS5003;22478;51.740;-1.314;2023-02-03T16:16:59;25;25;
36453;PMS5003;22478;51.740;-1.314;2023-02-03T16:19:32;25;24;
36453;PMS5003;22478;51.740;-1.314;2023-02-03T16:21:59;24;23;
36453;PMS5003;22478;51.740;-1.314;2023-02-03T16:24:31;15;15;
36453;PMS5003;22478;51.740;-1.314;2023-02-03T16:27:19;8;8;
36453;PMS5003;22478;51.740;-1.314;2023-02-03T16:30:14;5;5;
36453;PMS5003;22478;51.740;-1.314;2023-02-03T16:32:56;16;16;
36453;PMS5003;22478;51.740;-1.314;2023-02-03T16:35:27;14;12;